createdAt,value
2018-06-10T00:00:18.834Z,21.80
2018-06-10T00:02:47.662Z,22.67
2018-06-10T00:05:16.654Z,22.53
2018-06-10T00:07:45.393Z,22.43
2018-06-10T00:10:14.262Z,22.93
2018-06-10T00:12:42.998Z,22.10
2018-06-10T00:15:11.624Z,23.10
2018-06-10T00:17:40.250Z,21.53
2018-06-10T00:20:09.115Z,21.50
2018-06-10T00:22:37.847Z,23.30
2018-06-10T00:25:06.938Z,23.60
2018-06-10T00:27:35.685Z,22.57
2018-06-10T00:30:04.571Z,22.03
2018-06-10T00:32:33.434Z,24.00
2018-06-10T00:35:02.167Z,22.67
2018-06-10T00:37:30.786Z,22.03
2018-06-10T00:39:59.640Z,22.40
2018-06-10T00:42:28.389Z,23.90
2018-06-10T00:44:57.020Z,21.30
2018-06-10T00:47:25.629Z,23.27
2018-06-10T00:49:54.486Z,22.90
2018-06-10T00:52:23.232Z,24.07
2018-06-10T00:54:52.083Z,24.70
2018-06-10T00:57:21.070Z,30.80
2018-06-10T00:59:49.801Z,33.67
2018-06-10T01:02:18.854Z,39.43
2018-06-10T01:04:47.430Z,42.20
2018-06-10T01:07:16.018Z,39.50
2018-06-10T01:09:44.618Z,30.30
2018-06-10T01:12:13.202Z,29.57
2018-06-10T01:14:41.770Z,30.80
2018-06-10T01:17:10.354Z,34.80
2018-06-10T01:19:39.179Z,33.30
2018-06-10T01:22:08.114Z,34.37
2018-06-10T01:24:37.062Z,35.27
2018-06-10T01:27:06.015Z,33.73
2018-06-10T01:29:34.742Z,33.03
2018-06-10T01:32:03.554Z,33.00
2018-06-10T01:34:32.511Z,36.00
2018-06-10T01:37:01.209Z,36.70
2018-06-10T01:39:30.042Z,36.63
2018-06-10T01:41:58.990Z,37.30
2018-06-10T01:44:27.714Z,37.23
2018-06-10T01:46:56.542Z,38.10
2018-06-10T01:49:25.506Z,36.23
2018-06-10T01:51:54.213Z,37.43
2018-06-10T01:54:23.045Z,37.77
2018-06-10T01:56:51.769Z,37.60
2018-06-10T01:59:20.602Z,38.43
2018-06-10T02:01:49.563Z,37.93
2018-06-10T02:04:18.301Z,36.57
2018-06-10T02:06:47.150Z,37.57
2018-06-10T02:09:16.114Z,39.70
2018-06-10T02:11:44.805Z,39.17
2018-06-10T02:14:13.629Z,40.70
2018-06-10T02:16:42.587Z,40.40
2018-06-10T02:19:11.519Z,42.37
2018-06-10T02:21:40.483Z,38.73
2018-06-10T02:24:09.214Z,39.93
2018-06-10T02:26:38.021Z,39.77
2018-06-10T02:29:06.975Z,39.60
2018-06-10T02:31:35.719Z,42.80
2018-06-10T02:34:04.313Z,39.30
2018-06-10T02:36:33.135Z,42.07
2018-06-10T02:39:01.861Z,44.47
2018-06-10T02:41:30.681Z,46.27
2018-06-10T02:43:59.619Z,45.20
2018-06-10T02:46:28.351Z,44.63
2018-06-10T02:48:57.174Z,43.83
2018-06-10T02:51:25.886Z,43.23
2018-06-10T02:53:54.528Z,41.77
2018-06-10T02:56:23.353Z,42.87
2018-06-10T02:58:52.310Z,41.20
2018-06-10T03:01:21.262Z,40.53
2018-06-10T03:03:50.231Z,40.13
2018-06-10T03:06:18.973Z,40.13
2018-06-10T03:08:47.818Z,38.87
2018-06-10T03:11:16.778Z,39.10
2018-06-10T03:13:45.506Z,38.20
2018-06-10T03:16:14.086Z,35.90
2018-06-10T03:18:42.910Z,33.70
2018-06-10T03:21:11.645Z,32.03
2018-06-10T03:23:40.472Z,29.13
2018-06-10T03:26:09.217Z,26.00
2018-06-10T03:28:37.800Z,25.10
2018-06-10T03:31:06.382Z,26.20
2018-06-10T03:33:35.218Z,23.97
2018-06-10T03:36:03.937Z,24.30
2018-06-10T03:38:32.514Z,24.73
2018-06-10T03:41:01.105Z,24.00
2018-06-10T03:43:29.938Z,21.67
2018-06-10T03:46:42.063Z,22.23
2018-06-10T03:49:10.787Z,22.80
2018-06-10T03:51:39.594Z,23.70
2018-06-10T03:54:08.538Z,23.03
2018-06-10T03:56:37.261Z,22.50
2018-06-10T03:59:06.066Z,22.80
2018-06-10T04:01:35.027Z,22.13
2018-06-10T04:04:03.750Z,21.50
2018-06-10T04:06:32.590Z,23.77
2018-06-10T04:09:01.579Z,23.60
2018-06-10T04:11:30.573Z,24.53
2018-06-10T04:13:59.504Z,23.80
2018-06-10T04:16:28.945Z,23.77
2018-06-10T04:18:58.018Z,23.63
2018-06-10T04:21:26.962Z,22.17
2018-06-10T04:23:55.894Z,21.57
2018-06-10T04:26:24.616Z,21.30
2018-06-10T04:28:53.446Z,23.23
2018-06-10T04:31:22.384Z,23.63
2018-06-10T04:33:51.105Z,24.00
2018-06-10T04:36:19.906Z,23.50
2018-06-10T04:38:48.858Z,21.93
2018-06-10T04:41:17.573Z,23.80
2018-06-10T04:43:46.408Z,23.03
2018-06-10T04:46:15.363Z,23.97
2018-06-10T04:48:44.299Z,24.00
2018-06-10T04:51:13.019Z,24.97
2018-06-10T04:53:41.618Z,25.60
2018-06-10T04:56:10.202Z,25.27
2018-06-10T04:58:39.030Z,26.57
2018-06-10T05:01:07.738Z,25.77
2018-06-10T05:03:36.311Z,24.73
2018-06-10T05:06:05.256Z,25.97
2018-06-10T05:08:34.215Z,27.30
2018-06-10T05:11:02.954Z,26.60
2018-06-10T05:13:31.838Z,28.67
2018-06-10T05:16:00.750Z,27.80
2018-06-10T05:18:29.722Z,28.37
2018-06-10T05:20:58.678Z,27.80
2018-06-10T05:23:27.395Z,28.37
2018-06-10T05:25:56.207Z,30.70
2018-06-10T05:28:24.938Z,29.67
2018-06-10T05:30:53.765Z,29.77
2018-06-10T05:33:22.563Z,30.70
2018-06-10T05:35:51.523Z,30.37
2018-06-10T05:38:20.248Z,30.40
2018-06-10T05:40:49.055Z,32.87
2018-06-10T05:43:17.783Z,31.20
2018-06-10T05:45:46.374Z,31.47
2018-06-10T05:48:14.946Z,31.63
2018-06-10T05:50:43.790Z,32.67
2018-06-10T05:53:12.499Z,33.27
2018-06-10T05:55:41.317Z,29.50
2018-06-10T05:58:10.278Z,33.07
2018-06-10T06:00:39.030Z,33.53
2018-06-10T06:03:07.841Z,32.90
2018-06-10T06:05:36.790Z,33.30
2018-06-10T06:08:05.746Z,29.67
2018-06-10T06:10:34.682Z,31.20
2018-06-10T06:13:03.439Z,31.10
2018-06-10T06:15:32.035Z,31.73
2018-06-10T06:18:00.858Z,30.47
2018-06-10T06:20:29.574Z,33.30
2018-06-10T06:22:58.410Z,32.20
2018-06-10T06:25:27.363Z,31.17
2018-06-10T06:27:56.062Z,29.87
2018-06-10T06:30:24.721Z,30.63
2018-06-10T06:32:53.549Z,32.27
2018-06-10T06:35:22.250Z,31.17
2018-06-10T06:37:51.078Z,29.13
2018-06-10T06:40:20.035Z,31.10
2018-06-10T06:42:48.750Z,32.10
2018-06-10T06:45:17.582Z,29.13
2018-06-10T06:47:46.538Z,29.23
2018-06-10T06:50:15.281Z,33.97
2018-06-10T06:52:44.124Z,29.63
2018-06-10T06:55:12.858Z,30.53
2018-06-10T06:57:41.457Z,33.43
2018-06-10T07:00:10.307Z,34.20
2018-06-10T07:02:39.065Z,31.20
2018-06-10T07:05:07.655Z,31.20
2018-06-10T07:07:36.488Z,34.10
2018-06-10T07:10:05.448Z,34.40
2018-06-10T07:12:34.154Z,34.17
2018-06-10T07:15:03.041Z,36.17
2018-06-10T07:17:31.990Z,35.63
2018-06-10T07:20:00.739Z,35.80
2018-06-10T07:22:29.534Z,34.77
2018-06-10T07:24:58.265Z,37.53
2018-06-10T07:27:26.869Z,37.10
2018-06-10T07:29:55.679Z,40.27
2018-06-10T07:32:24.646Z,41.80
2018-06-10T07:34:53.382Z,45.33
2018-06-10T07:37:22.195Z,43.73
2018-06-10T07:39:50.935Z,43.00
2018-06-10T07:42:19.521Z,42.07
2018-06-10T07:44:48.114Z,40.93
2018-06-10T07:47:16.983Z,39.23
2018-06-10T07:49:45.708Z,38.50
2018-06-10T07:52:14.539Z,35.90
2018-06-10T07:54:43.247Z,35.10
2018-06-10T07:57:12.079Z,35.10
2018-06-10T07:59:41.027Z,34.57
2018-06-10T08:02:09.962Z,38.00
2018-06-10T08:04:38.698Z,37.77
2018-06-10T08:07:07.503Z,39.23
2018-06-10T08:09:36.421Z,40.43
2018-06-10T08:12:05.042Z,40.43
2018-06-10T08:14:33.867Z,40.63
2018-06-10T08:17:02.602Z,37.80
2018-06-10T08:19:31.206Z,40.80
2018-06-10T08:22:00.050Z,45.77
2018-06-10T08:24:28.992Z,46.63
2018-06-10T08:26:57.727Z,48.33
2018-06-10T08:29:26.543Z,45.87
2018-06-10T08:31:55.303Z,44.67
2018-06-10T08:34:23.906Z,47.93
2018-06-10T08:36:52.489Z,48.30
2018-06-10T08:39:21.303Z,47.73
2018-06-10T08:41:50.014Z,51.87
2018-06-10T08:44:18.593Z,53.57
2018-06-10T08:46:47.423Z,54.67
2018-06-10T08:49:16.155Z,53.27
2018-06-10T08:51:44.810Z,60.90
2018-06-10T08:54:13.624Z,64.87
2018-06-10T08:56:42.367Z,71.67
2018-06-10T08:59:11.002Z,73.70
2018-06-10T09:01:39.866Z,65.37
2018-06-10T09:04:08.846Z,69.80
2018-06-10T09:06:37.807Z,69.00
2018-06-10T09:09:08.788Z,67.73
2018-06-10T09:11:37.558Z,61.77
2018-06-10T09:14:06.408Z,66.10
2018-06-10T09:16:35.383Z,62.00
2018-06-10T09:19:04.141Z,59.57
2018-06-10T09:21:33.013Z,61.00
2018-06-10T09:24:01.726Z,76.03
2018-06-10T09:26:30.330Z,67.07
2018-06-10T09:28:59.180Z,63.20
2018-06-10T09:31:28.145Z,58.60
2018-06-10T09:33:57.087Z,56.17
2018-06-10T09:36:25.806Z,55.60
2018-06-10T09:38:54.423Z,58.87
2018-06-10T09:41:23.022Z,65.80
2018-06-10T09:43:51.874Z,64.93
2018-06-10T09:46:20.619Z,61.93
2018-06-10T09:48:49.222Z,57.43
2018-06-10T09:51:17.835Z,59.93
2018-06-10T09:53:46.666Z,64.13
2018-06-10T09:56:15.394Z,61.17
2018-06-10T09:58:43.990Z,65.97
2018-06-10T10:01:12.810Z,68.27
2018-06-10T10:03:41.530Z,68.97
2018-06-10T10:06:10.094Z,61.73
2018-06-10T10:08:39.218Z,63.33
2018-06-10T10:11:07.938Z,58.27
2018-06-10T10:13:36.754Z,59.43
2018-06-10T10:16:05.494Z,68.57
2018-06-10T10:18:34.085Z,66.57
2018-06-10T10:21:02.773Z,65.70
2018-06-10T10:23:31.334Z,59.27
2018-06-10T10:26:00.147Z,59.60
2018-06-10T10:28:28.866Z,58.40
2018-06-10T10:30:57.714Z,58.27
2018-06-10T10:33:26.676Z,64.73
2018-06-10T10:35:55.396Z,60.77
2018-06-10T10:38:24.227Z,57.60
2018-06-10T10:40:52.959Z,51.00
2018-06-10T10:43:21.554Z,54.30
2018-06-10T10:45:50.382Z,55.23
2018-06-10T10:48:19.338Z,57.97
2018-06-10T10:50:48.057Z,55.57
2018-06-10T10:53:16.886Z,53.50
2018-06-10T10:55:45.615Z,49.17
2018-06-10T10:58:14.185Z,45.53
2018-06-10T11:00:42.989Z,44.90
2018-06-10T11:03:11.950Z,46.07
2018-06-10T11:05:40.662Z,42.23
2018-06-10T11:08:09.477Z,42.37
2018-06-10T11:10:38.406Z,35.07
2018-06-10T11:13:07.126Z,39.47
2018-06-10T11:15:35.976Z,38.90
2018-06-10T11:18:04.890Z,36.47
2018-06-10T11:20:33.653Z,35.50
2018-06-10T11:23:02.479Z,36.23
2018-06-10T11:25:31.198Z,30.57
2018-06-10T11:27:59.802Z,29.03
2018-06-10T11:30:28.648Z,32.33
2018-06-10T11:32:57.368Z,29.63
2018-06-10T11:35:25.949Z,29.20
2018-06-10T11:37:54.530Z,29.87
2018-06-10T11:40:23.382Z,28.40
2018-06-10T11:42:52.118Z,26.43
2018-06-10T11:45:20.955Z,26.40
2018-06-10T11:47:49.912Z,25.20
2018-06-10T11:50:18.617Z,24.60
2018-06-10T11:52:47.418Z,23.57
2018-06-10T11:55:17.333Z,23.50
2018-06-10T11:57:46.129Z,23.00
2018-06-10T12:00:14.830Z,24.00
2018-06-10T12:02:43.451Z,21.73
2018-06-10T12:05:12.328Z,21.00
2018-06-10T12:07:40.982Z,22.10
2018-06-10T12:10:11.162Z,19.83
2018-06-10T12:12:39.747Z,22.27
2018-06-10T12:15:08.562Z,21.10
2018-06-10T12:17:37.490Z,22.20
2018-06-10T12:20:06.326Z,20.00
2018-06-10T12:22:35.208Z,18.90
2018-06-10T12:25:03.839Z,24.33
2018-06-10T12:27:32.446Z,21.93
2018-06-10T12:30:01.026Z,21.63
2018-06-10T12:32:29.850Z,24.00
2018-06-10T12:34:58.566Z,21.97
2018-06-10T12:37:27.418Z,22.33
2018-06-10T12:39:56.404Z,25.33
2018-06-10T12:42:25.134Z,20.27
2018-06-10T12:44:54.014Z,21.53
2018-06-10T12:47:22.766Z,20.20
2018-06-10T12:49:51.342Z,19.80
2018-06-10T12:52:20.258Z,17.77
2018-06-10T12:54:49.232Z,18.00
2018-06-10T12:57:18.147Z,18.30
2018-06-10T12:59:47.074Z,18.27
2018-06-10T13:02:15.834Z,19.90
2018-06-10T13:04:44.402Z,16.93
2018-06-10T13:07:13.204Z,19.40
2018-06-10T13:09:41.929Z,21.37
2018-06-10T13:12:10.526Z,19.47
2018-06-10T13:14:39.110Z,18.50
2018-06-10T13:17:07.947Z,15.53
2018-06-10T13:19:36.674Z,15.53
2018-06-10T13:22:05.270Z,15.90
2018-06-10T13:24:34.125Z,14.90
2018-06-10T13:27:02.809Z,15.20
2018-06-10T13:29:31.382Z,17.17
2018-06-10T13:32:00.195Z,15.20
2018-06-10T13:34:28.899Z,14.80
2018-06-10T13:36:57.470Z,15.17
2018-06-10T13:39:26.054Z,16.70
2018-06-10T13:41:54.653Z,15.97
2018-06-10T13:44:23.230Z,13.20
2018-06-10T13:46:51.797Z,14.13
2018-06-10T13:49:20.404Z,16.87
2018-06-10T13:51:49.206Z,14.13
2018-06-10T13:54:17.905Z,17.00
2018-06-10T13:56:46.535Z,16.27
2018-06-10T13:59:15.098Z,16.03
2018-06-10T14:01:43.882Z,19.70
2018-06-10T14:04:12.591Z,17.40
2018-06-10T14:06:41.533Z,14.30
2018-06-10T14:09:10.411Z,16.50
2018-06-10T14:11:39.130Z,15.93
2018-06-10T14:14:07.737Z,15.20
2018-06-10T14:16:36.570Z,15.13
2018-06-10T14:19:05.304Z,13.37
2018-06-10T14:21:33.872Z,14.13
2018-06-10T14:24:02.711Z,14.73
2018-06-10T14:26:31.459Z,13.43
2018-06-10T14:29:00.286Z,11.90
2018-06-10T14:31:28.990Z,13.13
2018-06-10T14:33:57.578Z,14.20
2018-06-10T14:36:26.150Z,13.33
2018-06-10T14:38:54.959Z,11.50
2018-06-10T14:41:23.876Z,12.70
2018-06-10T14:43:52.569Z,11.37
2018-06-10T14:46:21.391Z,10.77
2018-06-10T14:48:52.507Z,11.30
2018-06-10T14:51:21.455Z,11.77
2018-06-10T14:53:50.201Z,12.00
2018-06-10T14:56:18.785Z,12.07
2018-06-10T14:58:47.385Z,11.60
2018-06-10T15:01:16.205Z,11.63
2018-06-10T15:03:44.950Z,11.10
2018-06-10T15:06:13.550Z,14.30
2018-06-10T15:08:42.150Z,11.97
2018-06-10T15:11:10.751Z,11.57
2018-06-10T15:13:39.370Z,11.17
2018-06-10T15:16:07.963Z,10.57
2018-06-10T15:18:36.527Z,10.63
2018-06-10T15:21:05.403Z,10.37
2018-06-10T15:23:34.105Z,9.60
2018-06-10T15:26:02.942Z,10.43
2018-06-10T15:28:31.902Z,9.63
2018-06-10T15:31:00.615Z,10.67
2018-06-10T15:33:29.483Z,10.77
2018-06-10T15:35:58.438Z,10.30
2018-06-10T15:38:27.438Z,11.43
2018-06-10T15:40:56.139Z,11.33
2018-06-10T15:43:24.718Z,16.77
2018-06-10T15:45:53.331Z,17.20
2018-06-10T15:48:22.157Z,26.73
2018-06-10T15:50:50.870Z,21.47
2018-06-10T15:53:19.462Z,14.70
2018-06-10T15:55:48.307Z,12.17
2018-06-10T15:58:17.268Z,13.67
2018-06-10T16:00:45.993Z,21.70
2018-06-10T16:03:14.842Z,27.37
2018-06-10T16:05:43.798Z,24.87
2018-06-10T16:08:12.764Z,43.17
2018-06-10T16:10:41.461Z,19.17
2018-06-10T16:13:10.067Z,12.00
2018-06-10T16:15:38.650Z,18.60
2018-06-10T16:18:07.488Z,14.40
2018-06-10T16:20:36.439Z,10.40
2018-06-10T16:23:05.367Z,10.23
2018-06-10T16:25:34.298Z,10.03
2018-06-10T16:28:03.014Z,10.17
2018-06-10T16:30:31.642Z,10.20
2018-06-10T16:33:00.450Z,9.77
2018-06-10T16:35:29.394Z,10.30
2018-06-10T16:37:58.363Z,10.40
2018-06-10T16:40:27.297Z,8.13
2018-06-10T16:42:56.250Z,10.83
2018-06-10T16:45:28.710Z,10.03
2018-06-10T16:47:57.471Z,9.10
2018-06-10T16:50:26.082Z,9.10
2018-06-10T16:52:54.896Z,8.30
2018-06-10T16:55:23.671Z,9.67
2018-06-10T16:57:52.270Z,9.73
2018-06-10T17:00:20.849Z,10.57
2018-06-10T17:02:49.457Z,13.17
2018-06-10T17:05:18.251Z,14.07
2018-06-10T17:07:46.942Z,9.83
2018-06-10T17:10:15.774Z,9.47
2018-06-10T17:12:44.538Z,10.70
2018-06-10T17:15:13.170Z,13.40
2018-06-10T17:17:41.841Z,13.23
2018-06-10T17:20:10.642Z,18.90
2018-06-10T17:22:39.370Z,15.73
2018-06-10T17:25:08.201Z,9.87
2018-06-10T17:27:37.158Z,10.97
2018-06-10T17:30:05.899Z,11.43
2018-06-10T17:32:34.721Z,10.57
2018-06-10T17:35:03.687Z,12.10
2018-06-10T17:37:32.371Z,10.30
2018-06-10T17:40:01.187Z,10.37
2018-06-10T17:42:30.193Z,9.30
2018-06-10T17:44:59.117Z,8.87
2018-06-10T17:47:28.114Z,12.67
2018-06-10T17:49:56.790Z,8.63
2018-06-10T17:52:25.612Z,9.07
2018-06-10T17:54:54.313Z,9.20
2018-06-10T17:57:22.886Z,8.43
2018-06-10T17:59:51.466Z,9.00
2018-06-10T18:02:20.265Z,10.93
2018-06-10T18:04:48.974Z,9.93
2018-06-10T18:07:17.568Z,11.00
2018-06-10T18:09:46.388Z,9.57
2018-06-10T18:12:15.097Z,9.17
2018-06-10T18:14:43.673Z,10.43
2018-06-10T18:17:12.273Z,10.97
2018-06-10T18:19:41.119Z,10.77
2018-06-10T18:22:09.825Z,9.43
2018-06-10T18:24:38.408Z,9.80
2018-06-10T18:27:07.218Z,10.40
2018-06-10T18:29:36.174Z,11.30
2018-06-10T18:32:04.887Z,10.27
2018-06-10T18:34:33.711Z,10.00
2018-06-10T18:37:02.462Z,10.60
2018-06-10T18:39:31.026Z,9.93
2018-06-10T18:41:59.834Z,9.50
2018-06-10T18:44:28.566Z,9.30
2018-06-10T18:46:57.116Z,8.90
2018-06-10T18:49:25.705Z,13.20
2018-06-10T18:51:54.530Z,9.83
2018-06-10T18:54:23.241Z,8.40
2018-06-10T18:56:51.851Z,10.30
2018-06-10T18:59:20.438Z,10.00
2018-06-10T19:01:49.238Z,9.37
2018-06-10T19:04:17.930Z,9.63
2018-06-10T19:06:46.739Z,9.77
2018-06-10T19:09:15.454Z,10.53
2018-06-10T19:11:44.033Z,11.80
2018-06-10T19:14:12.622Z,10.20
2018-06-10T19:16:41.214Z,9.90
2018-06-10T19:19:10.042Z,9.70
2018-06-10T19:21:38.739Z,11.30
2018-06-10T19:24:07.686Z,11.40
2018-06-10T19:26:36.655Z,11.60
2018-06-10T19:29:05.382Z,10.60
2018-06-10T19:31:34.215Z,11.37
2018-06-10T19:34:02.942Z,10.07
2018-06-10T19:36:31.537Z,13.10
2018-06-10T19:39:00.204Z,13.90
2018-06-10T19:41:28.978Z,13.27
2018-06-10T19:43:57.670Z,12.90
2018-06-10T19:46:26.273Z,13.03
2018-06-10T19:48:54.861Z,11.10
2018-06-10T19:51:23.453Z,12.13
2018-06-10T19:53:52.048Z,11.77
2018-06-10T19:56:20.614Z,12.73
2018-06-10T19:58:49.422Z,13.07
2018-06-10T20:01:18.136Z,12.47
2018-06-10T20:03:46.745Z,13.63
2018-06-10T20:06:15.603Z,21.07
2018-06-10T20:08:44.538Z,16.07
2018-06-10T20:11:13.285Z,12.30
2018-06-10T20:13:42.119Z,13.90
2018-06-10T20:16:11.126Z,13.30
2018-06-10T20:18:40.095Z,13.03
2018-06-10T20:21:09.062Z,14.47
2018-06-10T20:23:37.807Z,15.50
2018-06-10T20:26:06.989Z,14.60
2018-06-10T20:28:35.727Z,14.57
2018-06-10T20:31:04.570Z,13.73
2018-06-10T20:33:33.499Z,13.60
2018-06-10T20:36:02.248Z,13.27
2018-06-10T20:38:30.846Z,13.30
2018-06-10T20:40:59.725Z,13.07
2018-06-10T20:43:28.518Z,13.87
2018-06-10T20:45:57.339Z,14.00
2018-06-10T20:48:26.123Z,13.90
2018-06-10T20:50:54.653Z,14.57
2018-06-10T20:53:23.254Z,13.30
2018-06-10T20:55:52.107Z,13.07
2018-06-10T20:58:20.838Z,13.07
2018-06-10T21:00:49.443Z,13.30
2018-06-10T21:03:18.282Z,14.50
2018-06-10T21:05:47.251Z,14.13
2018-06-10T21:08:16.256Z,13.47
2018-06-10T21:10:45.159Z,15.13
2018-06-10T21:13:13.882Z,15.47
2018-06-10T21:15:42.487Z,16.07
2018-06-10T21:18:11.294Z,14.83
2018-06-10T21:20:40.014Z,15.87
2018-06-10T21:23:08.629Z,13.83
2018-06-10T21:25:37.459Z,15.53
2018-06-10T21:28:06.173Z,14.40
2018-06-10T21:30:34.790Z,14.73
2018-06-10T21:33:03.627Z,16.53
2018-06-10T21:35:32.584Z,16.13
2018-06-10T21:38:01.543Z,16.63
2018-06-10T21:40:30.502Z,16.50
2018-06-10T21:42:59.237Z,18.30
2018-06-10T21:45:28.082Z,19.30
2018-06-10T21:47:57.038Z,15.60
2018-06-10T21:50:25.766Z,15.53
2018-06-10T21:52:54.590Z,17.13
2018-06-10T21:55:23.551Z,18.80
2018-06-10T21:57:52.510Z,16.27
2018-06-10T22:00:25.966Z,16.50
2018-06-10T22:02:54.922Z,14.73
2018-06-10T22:05:23.875Z,16.93
2018-06-10T22:07:52.623Z,16.83
2018-06-10T22:10:21.452Z,16.60
2018-06-10T22:12:50.170Z,16.60
2018-06-10T22:15:18.770Z,14.73
2018-06-10T22:17:47.598Z,17.40
2018-06-10T22:20:16.540Z,17.33
2018-06-10T22:22:45.265Z,16.63
2018-06-10T22:25:13.865Z,15.80
2018-06-10T22:27:42.708Z,16.10
2018-06-10T22:30:11.408Z,16.30
2018-06-10T22:32:40.803Z,16.97
2018-06-10T22:35:09.542Z,15.07
2018-06-10T22:37:38.371Z,15.90
2018-06-10T22:40:07.326Z,17.37
2018-06-10T22:42:36.046Z,17.20
2018-06-10T22:45:05.052Z,17.03
2018-06-10T22:47:33.749Z,17.30
2018-06-10T22:50:02.322Z,17.40
2018-06-10T22:52:30.922Z,17.10
2018-06-10T22:54:59.746Z,15.53
2018-06-10T22:57:28.462Z,16.67
2018-06-10T22:59:57.304Z,17.50
2018-06-10T23:02:26.019Z,17.50
2018-06-10T23:04:54.614Z,16.47
2018-06-10T23:07:23.238Z,16.20
2018-06-10T23:09:52.063Z,16.50
2018-06-10T23:12:20.768Z,18.43
2018-06-10T23:14:49.363Z,17.57
2018-06-10T23:17:18.187Z,17.10
2018-06-10T23:19:47.151Z,16.10
2018-06-10T23:22:15.869Z,16.80
2018-06-10T23:24:44.693Z,18.23
2018-06-10T23:27:13.678Z,17.20
2018-06-10T23:29:42.386Z,18.10
2018-06-10T23:32:11.633Z,18.57
2018-06-10T23:34:40.350Z,20.07
2018-06-10T23:37:09.190Z,20.13
2018-06-10T23:39:38.139Z,18.40
2018-06-10T23:42:06.867Z,18.20
2018-06-10T23:44:35.690Z,18.90
2018-06-10T23:47:04.413Z,20.43
2018-06-10T23:49:33.013Z,18.20
2018-06-10T23:52:01.847Z,19.40
2018-06-10T23:54:30.778Z,18.87
2018-06-10T23:56:59.497Z,20.67
2018-06-10T23:59:28.107Z,20.47
